aviador You're here:

KTVR Decoded Metar

TALLULAH/VICKSBU in LA, USA
Report Time2017-05-28 23:53:00
UTC Time2017-05-29 00:05:49
Flight Rules vfr VFR
Wind360° at 03 kt
W.Decomp.*RWY 36: 3.0 kt HW 0.1 kt LCW
Visibility9999 m
Phenomena:N/A
Clouds:Broken 110 Hf
Expected CloudBase > 1,600 ft AGL from Temp-Dew spread
Ceiling11,000 ft
Temp25°C (ISA +10)
Dew Point21°C (79% RH)
QNH1013 hPa
Density Alt1,591 ft
Elevation85 ft
Report Wrong Elevation
Raw Report
KTVR 282353Z AUTO 36003KT 10SM BKN110 25/21 A2991 RMK AO2 SLP135
60003 T02500211 10278 20228 56009=

Extra information for KTVR:More info

Metar Taf Metar & Taf Last 4 Metars F.Rules Stats Wind Profile Meteogram Temp Stats Airport Information Weather charts Add Link Nearby VenuesMetar ALERT Operation Metar Decoded Social comments

AIRNAV info for KTVR